Tiempo atmosférico en la estación meteorológica de El Pinar, Depósito, Santa Cruz de Tenerife (948 m.)



Fecha
DESCASC
Temp. máxima en grados centígrados (hora)
DESCASC
Temp. mínima en grados centígrados (hora)
DESCASC
Temp. media en grados centígrados
DESCASC
Racha de viento máxima en m/sg (hora)
DESCASC
Velocidad máxima media en intervalos de 10 minutos(hora)
DESCASC
Precipitaciones diarias en mm
DESCASC
Precipitaciones de 00:00 a 06:00 en mm
DESCASC
Precipitaciones de 06:00 a 12:00 en mm
DESCASC
Precipitaciones de 12:00 a 18:00 en mm
DESCASC
Precipitaciones de 18:00 a 24:00 en mm
DESCASC
20-09-2018 25.7 (12:30) 15.1 (07:10) 20.4 5 (13:50) 3.06 (12:50) 0 0 0 0 0
19-09-2018 24.8 (17:20) 12.7 (08:20) 18.7 6.94 (14:20) 3.33 (14:20) 0 0 0 0 0
18-09-2018 20.4 (15:10) 11.3 (06:40) 15.8 5.28 (12:00) 3.06 (12:00) 0 0 0 0 0
17-09-2018 20.2 (11:30) 10.9 (05:30) 15.6 7.78 (11:50) 3.33 (15:20) 0 0 0 0 0
16-09-2018 21.7 (15:10) 14.4 (00:00) 18.1 9.44 (21:30) 3.89 (11:10) 0 0 0 0 0
15-09-2018 26.1 (13:50) 18.3 (00:00) 22.2 9.17 (17:00) 3.33 (17:00) 0 0 0 0 0
14-09-2018 25.1 (15:50) 17.5 (00:00) 21.3 5.28 (12:10) 3.06 (12:00) 0 0 0 0 0
13-09-2018 23.9 (16:40) 18.4 (00:00) 21.1 7.5 (02:20) 3.61 (13:40) 0 0 0 0 0
12-09-2018 20.9 (11:20) 11.1 (00:00) 16 10 (12:20) 4.17 (18:10) 0 0 0 0 0
11-09-2018 21.6 (16:40) 14.3 (00:00) 18 11.67 (11:30) 4.17 (12:00) 0 0 0 0 0
10-09-2018 20.9 (15:40) 13.9 (00:00) 17.4 11.11 (13:50) 4.17 (21:50) 0 0 0 0 0
09-09-2018 19.3 (16:40) 13.2 (00:00) 16.2 10.28 (03:30) 4.17 (09:40) 0 0 0 0 0
08-09-2018 21.1 (16:40) 13.2 (00:00) 17.2 10.83 (10:40) 4.44 (10:40) 0 0 0 0 0
07-09-2018 19.9 (11:40) 14 (00:00) 16.9 9.72 (13:40) 4.17 (13:50) 0 0 0 0 0
06-09-2018 24.2 (11:30) 15.5 (00:00) 19.9 8.06 (23:30) 3.89 (23:30) 0 0 0 0 0
05-09-2018 22.7 (19:30) 15.6 (00:00) 19.2 8.33 (00:20) 3.89 (00:20) 0 0 0 0 0
04-09-2018 24.6 (12:10) 14.3 (00:00) 19.5 7.78 (08:40) 3.61 (23:59) 0 0 0 0 0
03-09-2018 24.4 (15:20) 16.7 (00:00) 20.6 6.11 (01:20) 3.06 (16:40) 0 0 0 0 0
02-09-2018 22 (18:30) 11.3 (00:00) 16.7 6.67 (13:50) 3.61 (12:40) 0 0 0 0 0
01-09-2018 20.7 (17:00) 10.7 (00:00) 15.7 8.89 (00:10) 3.89 (04:00) 0 0 0 0 0
31-08-2018 23.9 (12:40) 13.9 (00:00) 18.9 12.5 (05:10) 5.83 (05:30) 0 0 0 0 0
30-08-2018 26.8 (12:10) 16.3 (00:00) 21.5 14.17 (18:10) 5.28 (02:00) 0 0 0 0 0
29-08-2018 27.5 (11:10) 17.3 (00:00) 22.4 11.39 (23:10) 5.28 (23:10) 0 0 0 0 0
28-08-2018 25.3 (14:30) 12.1 (00:00) 18.7 8.33 (04:50) 3.61 (21:20) 0 0 0 0 0
27-08-2018 24.1 (10:50) 15 (00:00) 19.6 7.5 (20:50) 3.61 (20:40) 0 0 0 0 0
26-08-2018 25.8 (16:20) 14.7 (00:00) 20.2 6.94 (12:50) 3.61 (16:10) 0 0 0 0 0
25-08-2018 29.8 (11:50) 17.4 (00:00) 23.6 6.94 (11:50) 3.61 (13:10) 0 0 0 0 0
24-08-2018 32.2 (13:10) 23.2 (00:00) 27.7 6.67 (04:10) 3.06 (14:20) 0 0 0 0 0
23-08-2018 32.1 (12:40) 21 (00:00) 26.5 5.83 (20:50) 2.78 (15:10) 0 0 0 0 0

Gráficas

Temp. máximas Temp. mínimas Temp. medias Precipitaciones Rachas de viento máximas Velocidades máximas media en intervalos de 10 minutos

Datos horarios

Fecha y hora oficial Temperatura (ºC) Velocidad del viento (km/h) Dirección del viento Racha (km/h) Dirección de racha Precipitación (mm) Presión (hPa) Tendencia (hPa) Humedad (%)
2018-09-21 23:00:00 15.7 5 Norte 10 Norte 0 -- -- 69
2018-09-21 22:00:00 15.7 5 Norte 8 Noroeste 0 -- -- 73
2018-09-21 21:00:00 15.9 0 Calma 6 Norte 0 -- -- 73
2018-09-21 20:00:00 18.4 2 Oeste 9 Sur 0 -- -- 83
2018-09-21 19:00:00 20.3 4 Sur 13 Sur 0 -- -- 78
2018-09-21 18:00:00 20.9 6 Sur 15 Sudeste 0 -- -- 74
2018-09-21 17:00:00 21.2 7 Sur 17 Sudeste 0 -- -- 74
2018-09-21 16:00:00 20.5 7 Sudeste 15 Sudeste 0 -- -- 78
2018-09-21 15:00:00 20.1 9 Sudeste 18 Sur 0 -- -- 78
2018-09-21 14:00:00 19.7 9 Sudeste 20 Sudeste 0 -- -- 78
2018-09-21 13:00:00 19.6 10 Sudeste 18 Este 0 -- -- 78
2018-09-21 12:00:00 18.4 9 Sudeste 16 Sudeste 0 -- -- 84
2018-09-21 11:00:00 19.9 8 Sudeste 14 Sudeste 0 -- -- 76
2018-09-21 10:00:00 18.8 5 Sudeste 10 Sudeste 0 -- -- 81
2018-09-21 09:00:00 17.5 0 Calma 8 Norte 0 -- -- 76
2018-09-21 08:00:00 15.3 4 Norte 9 Norte 0 -- -- 77
2018-09-21 07:00:00 15.5 6 Norte 10 Norte 0 -- -- 77
2018-09-21 06:00:00 15.6 5 Norte 9 Noroeste 0 -- -- 76
2018-09-21 05:00:00 16 5 Norte 11 Noroeste 0 -- -- 76
2018-09-21 04:00:00 16 5 Norte 9 Noroeste 0 -- -- 74
2018-09-21 03:00:00 17 5 Norte 9 Noroeste 0 -- -- 71
2018-09-21 02:00:00 16.8 7 Noroeste 12 Noroeste 0 -- -- 73
2018-09-21 01:00:00 17 6 Noroeste 10 Noroeste 0 -- -- 72
2018-09-21 00:00:00 17.2 5 Norte 8 Norte 0 -- -- 70
2018-09-20 23:00:00 17.9 4 Norte 8 Norte 0 -- -- 67
2018-09-20 22:00:00 18.4 5 Norte 8 Noroeste 0 -- -- 66
2018-09-20 21:00:00 19.6 4 Norte 6 Noroeste 0 -- -- 63
2018-09-20 20:00:00 21.7 3 Norte 10 Sur 0 -- -- 57
2018-09-20 19:00:00 22.9 5 Sudeste 12 Sur 0 -- -- 54
2018-09-20 18:00:00 23.6 8 Sudeste 14 Sudeste 0 -- -- 51
2018-09-20 17:00:00 24.2 9 Sudeste 17 Sudeste 0 -- -- 58
2018-09-20 16:00:00 23.5 7 Sudeste 16 Sudeste 0 -- -- 68
2018-09-20 15:00:00 24.6 7 Sur 18 Sur 0 -- -- 64
2018-09-20 14:00:00 24.9 6 Sudeste 18 Sur 0 -- -- 61
2018-09-20 13:00:00 24.9 10 Sudeste 16 Sur 0 -- -- 52
2018-09-20 12:00:00 25.1 10 Sudeste 17 Sudeste 0 -- -- 46
2018-09-20 11:00:00 23.8 5 Sur 10 Sur 0 -- -- 66
2018-09-20 10:00:00 23.1 4 Sur 12 Este 0 -- -- 57
2018-09-20 09:00:00 18.2 2 Nordeste 7 Norte 0 -- -- 76
2018-09-20 08:00:00 15.3 7 Norte 8 Norte 0 -- -- 75
2018-09-20 07:00:00 15.2 7 Norte 9 Norte 0 -- -- 70
2018-09-20 06:00:00 15.4 6 Norte 9 Norte 0 -- -- 67
2018-09-20 05:00:00 15.5 5 Norte 9 Norte 0 -- -- 67
2018-09-20 04:00:00 15.6 8 Norte 9 Norte 0 -- -- 65
2018-09-20 03:00:00 15.8 8 Norte 10 Norte 0 -- -- 64
2018-09-20 02:00:00 15.7 7 Norte 11 Norte 0 -- -- 62
2018-09-20 01:00:00 15.7 6 Norte 10 Norte 0 -- -- 60
2018-09-20 00:00:00 16.5 4 Norte 9 Norte 0 -- -- 61
2018-09-19 23:00:00 16.9 7 Norte 9 Noroeste 0 -- -- 57
2018-09-19 22:00:00 17.3 7 Norte 8 Norte 0 -- -- 55
2018-09-19 21:00:00 18.8 6 Norte 8 Norte 0 -- -- 54
2018-09-19 20:00:00 22.4 0 Calma 6 Sudeste 0 -- -- 43
2018-09-19 19:00:00 24.3 4 Sur 13 Sur 0 -- -- 42
2018-09-19 18:00:00 24.8 7 Sur 13 Sudeste 0 -- -- 42
2018-09-19 17:00:00 24.2 5 Sudeste 19 Sudeste 0 -- -- 42
2018-09-19 16:00:00 23 7 Este 19 Este 0 -- -- 60
2018-09-19 15:00:00 22.4 9 Este 25 Sudeste 0 -- -- 54
2018-09-19 14:00:00 20.9 7 Este 25 Este 0 -- -- 53
2018-09-19 13:00:00 17.6 10 Este 22 Este 0 -- -- 88
2018-09-19 12:00:00 17.3 10 Este 20 Sudeste 0 -- -- 89
2018-09-19 11:00:00 20.6 7 Sudeste 21 Este 0 -- -- 64
2018-09-19 10:00:00 20.1 8 Sudeste 16 Sudeste 0 -- -- 61
2018-09-19 09:00:00 15.7 2 Noroeste 11 Norte 0 -- -- 64
2018-09-19 08:00:00 12.9 6 Norte 10 Norte 0 -- -- 84
2018-09-19 07:00:00 14.6 3 Norte 17 Este 0 -- -- 86
2018-09-19 06:00:00 15.2 4 Este 12 Este 0 -- -- 93
2018-09-19 05:00:00 13.3 3 Noroeste 9 Norte 0 -- -- 60
2018-09-19 04:00:00 14 3 Nordeste 14 Norte 0 -- -- 63
2018-09-19 03:00:00 14.6 3 Norte 21 Este 0 -- -- 76
2018-09-19 02:00:00 13.7 4 Nordeste 10 Norte 0 -- -- 56
2018-09-19 01:00:00 14.1 6 Norte 10 Norte 0 -- -- 50
2018-09-19 00:00:00 14.3 5 Norte 11 Norte 0 -- -- 51
2018-09-18 23:00:00 14.8 5 Norte 10 Noroeste 0 -- -- 50
2018-09-18 22:00:00 14.9 7 Norte 12 Norte 0 -- -- 53
2018-09-18 21:00:00 15.4 7 Norte 12 Norte 0 -- -- 55
2018-09-18 20:00:00 18.1 3 Este 10 Sudeste 0 -- -- 68
2018-09-18 19:00:00 19.9 6 Este 15 Este 0 -- -- 61
2018-09-18 18:00:00 19.3 5 Sudeste 17 Sudeste 0 -- -- 80
2018-09-18 17:00:00 18.9 5 Este 18 Sudeste 0 -- -- 80
2018-09-18 16:00:00 20.3 10 Sudeste 17 Sudeste 0 -- -- 71
2018-09-18 15:00:00 20 9 Sudeste 17 Sudeste 0 -- -- 74
2018-09-18 14:00:00 19.8 10 Sudeste 18 Sudeste 0 -- -- 71
2018-09-18 13:00:00 19.4 9 Sudeste 18 Sudeste 0 -- -- 72
2018-09-18 12:00:00 18.4 11 Sudeste 19 Sudeste 0 -- -- 77
2018-09-18 11:00:00 17.2 8 Este 17 Sudeste 0 -- -- 82
2018-09-18 10:00:00 15.4 6 Nordeste 14 Este 0 -- -- 93
2018-09-18 09:00:00 14.8 6 Nordeste 13 Este 0 -- -- 92
2018-09-18 08:00:00 14.2 4 Este 10 Norte 0 -- -- 93
2018-09-18 07:00:00 11.4 4 Norte 10 Norte 0 -- -- 74
2018-09-18 06:00:00 11.6 4 Norte 8 Norte 0 -- -- 66
2018-09-18 05:00:00 11.7 7 Norte 9 Norte 0 -- -- 62
2018-09-18 04:00:00 11.8 7 Norte 8 Norte 0 -- -- 60
2018-09-18 03:00:00 12.3 5 Norte 9 Norte 0 -- -- 57
2018-09-18 02:00:00 12.4 6 Norte 9 Norte 0 -- -- 56
2018-09-18 01:00:00 12.5 5 Norte 9 Noroeste 0 -- -- 60
2018-09-18 00:00:00 12.3 5 Norte 9 Norte 0 -- -- 63
2018-09-17 23:00:00 12.3 6 Norte 10 Norte 0 -- -- 69
2018-09-17 22:00:00 13 4 Norte 8 Norte 0 -- -- 79
2018-09-17 21:00:00 15.9 0 Calma 5 Sudeste 0 -- -- 84
2018-09-17 20:00:00 16.2 2 Sudeste 9 Sudeste 0 -- -- 86
2018-09-17 19:00:00 16.1 5 Sudeste 13 Sudeste 0 -- -- 87
2018-09-17 18:00:00 16.7 7 Este 13 Este 0 -- -- 83
2018-09-17 17:00:00 17.4 7 Sudeste 14 Sudeste 0 -- -- 86
2018-09-17 16:00:00 18 9 Sudeste 20 Este 0 -- -- 82
2018-09-17 15:00:00 18.5 9 Este 19 Sudeste 0 -- -- 76
2018-09-17 14:00:00 18.5 10 Este 20 Sudeste 0 -- -- 77
2018-09-17 13:00:00 19.1 8 Este 21 Sur 0 -- -- 73
2018-09-17 12:00:00 19.4 9 Sudeste 28 Sudeste 0 -- -- 74
2018-09-17 11:00:00 19.6 7 Sudeste 17 Sudeste 0 -- -- 72
2018-09-17 10:00:00 18.5 6 Sur 10 Sur 0 -- -- 70
2018-09-17 09:00:00 13.7 0 Calma 8 Noroeste 0 -- -- 67
2018-09-17 08:00:00 11 5 Norte 8 Norte 0 -- -- 64
2018-09-17 07:00:00 11.5 4 Norte 9 Noroeste 0 -- -- 77
2018-09-17 06:00:00 11.1 3 Nordeste 8 Noroeste 0 -- -- 76
2018-09-17 05:00:00 11.1 4 Noroeste 7 Noroeste 0 -- -- 80
2018-09-17 04:00:00 12.1 5 Noroeste 9 Norte 0 -- -- 86
2018-09-17 03:00:00 13.3 3 Oeste 12 Sur 0 -- -- 85
2018-09-17 02:00:00 14 3 Sudeste 17 Oeste 0 -- -- 88
2018-09-17 01:00:00 14.2 4 Noroeste 13 Norte 0 -- -- 85
2018-09-17 00:00:00 14.6 3 Sudoeste 20 Noroeste 0 -- -- 77
2018-09-16 23:00:00 14.6 4 Norte 21 Noroeste 0 -- -- 68
2018-09-16 22:00:00 15.3 12 Noroeste 34 Norte 0 -- -- 80
2018-09-16 21:00:00 15.9 6 Norte 19 Sudoeste 0 -- -- 80
2018-09-16 20:00:00 17.1 6 Noroeste 16 Oeste 0 -- -- 73
2018-09-16 19:00:00 19.1 5 Noroeste 20 Noroeste 0 -- -- 71
2018-09-16 18:00:00 20.4 7 Oeste 22 Oeste 0 -- -- 64
2018-09-16 17:00:00 21.5 8 Noroeste 25 Noroeste 0 -- -- 60
2018-09-16 16:00:00 21.7 8 Norte 23 Norte 0 -- -- 58
2018-09-16 15:00:00 21.6 9 Noroeste 19 Oeste 0 -- -- 59
2018-09-16 14:00:00 20 10 Sudeste 20 Sudeste 0 -- -- 71
2018-09-16 13:00:00 19.5 7 Sur 26 Sudeste 0 -- -- 73
2018-09-16 12:00:00 19.1 10 Este 26 Sudeste 0 -- -- 69
2018-09-16 11:00:00 19 10 Sudeste 27 Sudeste 0 -- -- 68
2018-09-16 10:00:00 16.4 10 Este 28 Este 0 -- -- 83
2018-09-16 09:00:00 16.3 6 Nordeste 19 Este 0 -- -- 74
2018-09-16 08:00:00 14.6 3 Nordeste 21 Norte 0 -- -- 87
2018-09-16 07:00:00 16.3 7 Norte 28 Norte 0 -- -- 71
2018-09-16 06:00:00 16.1 5 Norte 20 Oeste 0 -- -- 75
2018-09-16 05:00:00 17 6 Nordeste 17 Sudoeste 0 -- -- 74
2018-09-16 04:00:00 17.7 6 Sudeste 23 Sudeste 0 -- -- 70
2018-09-16 03:00:00 18.6 8 Norte 28 Noroeste 0 -- -- 63
2018-09-16 02:00:00 19.1 10 Norte 30 Nordeste 0 -- -- 64
2018-09-16 01:00:00 19.1 8 Norte 19 Noroeste 0 -- -- 67
2018-09-16 00:00:00 19.4 5 Norte 27 Norte 0 -- -- 64
2018-09-15 23:00:00 18.6 4 Norte 15 Norte 0 -- -- 72
2018-09-15 22:00:00 19.1 4 Norte 12 Norte 0 -- -- 75
2018-09-15 21:00:00 20 3 Norte 18 Norte 0 -- -- 66
2018-09-15 20:00:00 21.4 7 Norte 19 Noroeste 0 -- -- 64
2018-09-15 19:00:00 23.6 6 Nordeste 22 Norte 0 -- -- 58
2018-09-15 18:00:00 24.5 12 Noroeste 24 Norte 0 -- -- 58
2018-09-15 17:00:00 25.2 12 Noroeste 33 Noroeste 0 -- -- 59
2018-09-15 16:00:00 25.4 8 Norte 26 Oeste 0 -- -- 59
2018-09-15 15:00:00 25.7 6 Noroeste 32 Noroeste 0 -- -- 58
2018-09-15 14:00:00 25.8 9 Oeste 22 Noroeste 0 -- -- 57
2018-09-15 13:00:00 23.6 9 Sudeste 19 Sudeste 0 -- -- 66
2018-09-15 12:00:00 25.2 8 Sudeste 25 Norte 0 -- -- 57
2018-09-15 11:00:00 23.3 9 Sudeste 17 Sudeste 0 -- -- 64
2018-09-15 10:00:00 22.8 6 Sudeste 11 Sudeste 0 -- -- 65
2018-09-15 09:00:00 20.2 0 Calma 6 Noroeste 0 -- -- 77
2018-09-15 08:00:00 18.3 4 Norte 8 Norte 0 -- -- 80
2018-09-15 07:00:00 18.6 4 Norte 7 Norte 0 -- -- 78
2018-09-15 06:00:00 19.4 3 Nordeste 9 Noroeste 0 -- -- 76
2018-09-15 05:00:00 19 3 Nordeste 13 Nordeste 0 -- -- 76
2018-09-15 04:00:00 19.6 4 Norte 14 Noroeste 0 -- -- 74
2018-09-15 03:00:00 18.4 3 Noroeste 6 Norte 0 -- -- 76
2018-09-15 02:00:00 18.5 3 Norte 7 Norte 0 -- -- 74
2018-09-15 01:00:00 18.7 5 Norte 7 Norte 0 -- -- 72
2018-09-15 00:00:00 19 4 Norte 8 Norte 0 -- -- 71
2018-09-14 23:00:00 19.7 4 Norte 6 Norte 0 -- -- 69
2018-09-14 22:00:00 20.5 0 Calma 5 Norte 0 -- -- 67
2018-09-14 21:00:00 21.3 3 Norte 8 Nordeste 0 -- -- 67
2018-09-14 20:00:00 22.7 0 Calma 6 Este 0 -- -- 64
2018-09-14 19:00:00 22 4 Este 13 Este 0 -- -- 68
2018-09-14 18:00:00 24.1 7 Este 14 Sudeste 0 -- -- 60
2018-09-14 17:00:00 24.2 6 Sudeste 16 Nordeste 0 -- -- 59
2018-09-14 16:00:00 25 9 Este 14 Este 0 -- -- 51
2018-09-14 15:00:00 23.5 7 Este 16 Sudeste 0 -- -- 59
2018-09-14 14:00:00 23.5 8 Este 19 Sudeste 0 -- -- 61
2018-09-14 13:00:00 24 8 Este 19 Este 0 -- -- 56
2018-09-14 12:00:00 22.6 11 Sudeste 19 Sudeste 0 -- -- 66
2018-09-14 11:00:00 22.7 8 Este 17 Este 0 -- -- 62
2018-09-14 10:00:00 21.7 8 Nordeste 17 Este 0 -- -- 64
2018-09-14 09:00:00 19.9 4 Nordeste 13 Este 0 -- -- 66
2018-09-14 08:00:00 18 5 Nordeste 16 Norte 0 -- -- 79
2018-09-14 07:00:00 17.5 5 Norte 12 Este 0 -- -- 77
2018-09-14 06:00:00 17.9 3 Norte 10 Nordeste 0 -- -- 79
2018-09-14 05:00:00 17.7 4 Nordeste 10 Este 0 -- -- 74
2018-09-14 04:00:00 18.5 4 Nordeste 15 Nordeste 0 -- -- 69
2018-09-14 03:00:00 19.8 6 Norte 13 Nordeste 0 -- -- 68
2018-09-14 02:00:00 19.5 5 Norte 15 Nordeste 0 -- -- 63
2018-09-14 01:00:00 19.4 5 Nordeste 14 Sudeste 0 -- -- 63
2018-09-14 00:00:00 19.9 6 Nordeste 14 Este 0 -- -- 62
2018-09-13 23:00:00 19.8 4 Norte 14 Norte 0 -- -- 69
2018-09-13 22:00:00 20.2 5 Norte 9 Noroeste 0 -- -- 69
2018-09-13 21:00:00 21.4 4 Norte 9 Norte 0 -- -- 69
2018-09-13 20:00:00 22.4 3 Nordeste 12 Este 0 -- -- 69
2018-09-13 19:00:00 22.8 6 Este 14 Este 0 -- -- 67
2018-09-13 18:00:00 23.4 6 Este 15 Sudeste 0 -- -- 68
2018-09-13 17:00:00 23.2 9 Este 18 Sudeste 0 -- -- 70
2018-09-13 16:00:00 23.2 10 Este 19 Sudeste 0 -- -- 70
2018-09-13 15:00:00 22.6 9 Este 22 Sudeste 0 -- -- 72
2018-09-13 14:00:00 21.7 12 Este 22 Este 0 -- -- 75
2018-09-13 13:00:00 22.2 13 Este 25 Este 0 -- -- 74
2018-09-13 12:00:00 21.1 10 Este 22 Sudeste 0 -- -- 77
2018-09-13 11:00:00 20.6 7 Este 18 Nordeste 0 -- -- 79
2018-09-13 10:00:00 20.2 7 Este 17 Sudeste 0 -- -- 80
2018-09-13 09:00:00 19.8 5 Este 14 Nordeste 0 -- -- 81
2018-09-13 08:00:00 19 6 Nordeste 17 Este 0 -- -- 85
2018-09-13 07:00:00 19.5 8 Este 18 Este 0 -- -- 83
2018-09-13 06:00:00 19.1 6 Este 12 Nordeste 0 -- -- 85
2018-09-13 05:00:00 18.7 6 Nordeste 12 Este 0 -- -- 88
2018-09-13 04:00:00 18.8 4 Nordeste 12 Este 0 -- -- 87
2018-09-13 03:00:00 19.2 6 Nordeste 27 Sudeste 0 -- -- 87
2018-09-13 02:00:00 19.5 11 Este 26 Sudeste 0 -- -- 86
2018-09-13 01:00:00 19.6 9 Este 21 Sudeste 0 -- -- 86
2018-09-13 00:00:00 19.3 5 Este 24 Este 0 -- -- 89
2018-09-12 23:00:00 18.9 5 Nordeste 17 Este 0 -- -- 91
2018-09-12 22:00:00 19.2 5 Nordeste 15 Este 0 -- -- 88
2018-09-12 21:00:00 19.4 5 Nordeste 16 Este 0 -- -- 87
2018-09-12 20:00:00 19.8 8 Nordeste 22 Sudeste 0 -- -- 86
2018-09-12 19:00:00 20.8 8 Este 33 Sudeste 0 -- -- 81
2018-09-12 18:00:00 20.3 8 Este 26 Este 0 -- -- 85
2018-09-12 17:00:00 19.7 7 Este 23 Sudeste 0 -- -- 87
2018-09-12 16:00:00 18.9 10 Este 21 Sudeste 0 -- -- 90
2018-09-12 15:00:00 19.2 7 Este 18 Sudeste 0 -- -- 87
2018-09-12 14:00:00 19.2 7 Nordeste 21 Este 0 -- -- 85
2018-09-12 13:00:00 19.3 11 Este 36 Sudeste 0 -- -- 82
2018-09-12 12:00:00 20 11 Este 23 Sudeste 0 -- -- 75
2018-09-12 11:00:00 20.5 10 Este 27 Sudeste 0 -- -- 71
2018-09-12 10:00:00 20.7 8 Este 23 Sudeste 0 -- -- 56
2018-09-12 09:00:00 19.4 8 Este 18 Sudeste 0 -- -- 41
2018-09-12 08:00:00 14.5 9 Norte 19 Nordeste 0 -- -- 37
2018-09-12 07:00:00 11.1 7 Norte 13 Norte 0 -- -- 61
2018-09-12 06:00:00 11.9 6 Norte 17 Norte 0 -- -- 67
2018-09-12 05:00:00 14.9 6 Nordeste 23 Este 0 -- -- 95
2018-09-12 04:00:00 14.7 7 Nordeste 15 Nordeste 0 -- -- 93
2018-09-12 03:00:00 13.9 5 Este 20 Este 0 -- -- 87
2018-09-12 02:00:00 15.1 9 Nordeste 24 Este 0 -- -- 90
2018-09-12 01:00:00 15.5 5 Nordeste 22 Este 0 -- -- 89
2018-09-12 00:00:00 15.4 8 Este 23 Nordeste 0 -- -- 90
2018-09-11 23:00:00 14.9 9 Nordeste 21 Nordeste 0 -- -- 88
2018-09-11 22:00:00 15.3 7 Este 22 Este 0 -- -- 91
2018-09-11 21:00:00 15.1 5 Nordeste 12 Nordeste 0 -- -- 80
2018-09-11 20:00:00 16.3 3 Noroeste 14 Este 0 -- -- 77
2018-09-11 19:00:00 17.3 9 Este 18 Sudeste 0 -- -- 78
2018-09-11 18:00:00 19.6 6 Norte 21 Este 0 -- -- 69
2018-09-11 17:00:00 20.9 12 Nordeste 29 Norte 0 -- -- 57
2018-09-11 16:00:00 21.5 10 Este 26 Este 0 -- -- 51
2018-09-11 15:00:00 20.3 10 Sudeste 33 Norte 0 -- -- 61
2018-09-11 14:00:00 20.2 9 Nordeste 23 Sudeste 0 -- -- 64
2018-09-11 13:00:00 19.9 13 Sudeste 40 Norte 0 -- -- 61
2018-09-11 12:00:00 19.5 15 Nordeste 42 Norte 0 -- -- 64
2018-09-11 11:00:00 18.4 10 Nordeste 38 Este 0 -- -- 66
2018-09-11 10:00:00 16.7 10 Nordeste 23 Norte 0 -- -- 77
2018-09-11 09:00:00 16 9 Nordeste 33 Este 0 -- -- 82
2018-09-11 08:00:00 14.6 9 Nordeste 36 Norte 0 -- -- 86
2018-09-11 07:00:00 14.5 9 Nordeste 29 Norte 0 -- -- 84
2018-09-11 06:00:00 14.5 10 Nordeste 27 Nordeste 0 -- -- 82
2018-09-11 05:00:00 14.8 9 Nordeste 24 Norte 0 -- -- 81
2018-09-11 04:00:00 15.1 7 Nordeste 23 Norte 0 -- -- 83
2018-09-11 03:00:00 15 11 Nordeste 26 Nordeste 0 -- -- 83
2018-09-11 02:00:00 14.8 12 Este 31 Nordeste 0 -- -- 83
2018-09-11 01:00:00 14.3 9 Nordeste 30 Norte 0 -- -- 83
2018-09-11 00:00:00 14.5 12 Norte 38 Noroeste 0 -- -- 82
2018-09-10 23:00:00 14.5 9 Nordeste 30 Norte 0 -- -- 80
2018-09-10 22:00:00 14.9 14 Norte 32 Norte 0 -- -- 79
2018-09-10 21:00:00 15.5 14 Nordeste 35 Norte 0 -- -- 77
2018-09-10 20:00:00 16 10 Nordeste 31 Noroeste 0 -- -- 75
2018-09-10 19:00:00 18 9 Nordeste 33 Nordeste 0 -- -- 71
2018-09-10 18:00:00 19.4 10 Nordeste 28 Este 0 -- -- 63
2018-09-10 17:00:00 20.6 13 Nordeste 36 Este 0 -- -- 58
2018-09-10 16:00:00 20.7 11 Nordeste 34 Norte 0 -- -- 58
2018-09-10 15:00:00 20.1 10 Este 35 Nordeste 0 -- -- 57
2018-09-10 14:00:00 19.9 10 Nordeste 40 Norte 0 -- -- 61
2018-09-10 13:00:00 19.6 8 Nordeste 31 Norte 0 -- -- 65
2018-09-10 12:00:00 18.7 11 Nordeste 33 Norte 0 -- -- 69
2018-09-10 11:00:00 17.3 10 Nordeste 29 Norte 0 -- -- 75
2018-09-10 10:00:00 17 9 Nordeste 33 Este 0 -- -- 78
2018-09-10 09:00:00 15.9 12 Nordeste 25 Nordeste 0 -- -- 78
2018-09-10 08:00:00 13.9 12 Norte 30 Norte 0 -- -- 83
2018-09-10 07:00:00 14.2 10 Nordeste 27 Norte 0 -- -- 84
2018-09-10 06:00:00 14.6 9 Norte 28 Norte 0 -- -- 84
2018-09-10 05:00:00 14.7 8 Nordeste 27 Noroeste 0 -- -- 85
2018-09-10 04:00:00 14.8 9 Sudeste 32 Nordeste 0 -- -- 85
2018-09-10 03:00:00 14.8 9 Nordeste 28 Nordeste 0 -- -- 84
2018-09-10 02:00:00 15.2 9 Nordeste 31 Este 0 -- -- 83
2018-09-10 01:00:00 15.6 10 Nordeste 36 Este 0 -- -- 85
2018-09-10 00:00:00 14.8 10 Norte 33 Norte 0 -- -- 84
2018-09-09 23:00:00 14.6 8 Norte 33 Norte 0 -- -- 83
2018-09-09 22:00:00 15 11 Nordeste 32 Norte 0 -- -- 83
2018-09-09 21:00:00 14.8 10 Nordeste 26 Norte 0 -- -- 85
2018-09-09 20:00:00 15.7 8 Nordeste 32 Norte 0 -- -- 75
2018-09-09 19:00:00 18.7 10 Norte 32 Norte 0 -- -- 60
2018-09-09 18:00:00 18.9 9 Este 22 Este 0 -- -- 50
2018-09-09 17:00:00 18.4 12 Este 22 Este 0 -- -- 69
2018-09-09 16:00:00 18.2 8 Noroeste 30 Norte 0 -- -- 70
2018-09-09 15:00:00 18.2 9 Norte 29 Norte 0 -- -- 67
2018-09-09 14:00:00 18.1 9 Noroeste 33 Sudeste 0 -- -- 72
2018-09-09 13:00:00 18.9 8 Este 31 Norte 0 -- -- 66
2018-09-09 12:00:00 18.7 8 Nordeste 35 Norte 0 -- -- 64
2018-09-09 11:00:00 16 12 Norte 31 Este 0 -- -- 79
2018-09-09 10:00:00 15.7 8 Nordeste 32 Este 0 -- -- 80
2018-09-09 09:00:00 15.2 8 Nordeste 25 Este 0 -- -- 77
2018-09-09 08:00:00 13.2 8 Norte 32 Norte 0 -- -- 83
2018-09-09 07:00:00 13.7 9 Norte 33 Noroeste 0 -- -- 86
2018-09-09 06:00:00 13.4 11 Norte 32 Norte 0 -- -- 82
2018-09-09 05:00:00 13.6 9 Norte 31 Noroeste 0 -- -- 82
2018-09-09 04:00:00 13.7 12 Norte 37 Nordeste 0 -- -- 81
2018-09-09 03:00:00 13.7 11 Norte 32 Norte 0 -- -- 82
2018-09-09 02:00:00 13.9 8 Nordeste 29 Este 0 -- -- 84
2018-09-09 01:00:00 13.8 10 Este 27 Este 0 -- -- 84
2018-09-09 00:00:00 14 9 Nordeste 28 Este 0 -- -- 84
2018-09-08 23:00:00 14 9 Este 27 Este 0 -- -- 84
2018-09-08 22:00:00 13.9 4 Nordeste 14 Este 0 -- -- 81
2018-09-08 21:00:00 14.3 3 Nordeste 15 Este 0 -- -- 81
2018-09-08 20:00:00 15.4 5 Este 18 Nordeste 0 -- -- 78
2018-09-08 19:00:00 17.6 8 Nordeste 20 Norte 0 -- -- 73
2018-09-08 18:00:00 19.3 7 Noroeste 24 Norte 0 -- -- 54
2018-09-08 17:00:00 20.7 9 Norte 22 Norte 0 -- -- 56
2018-09-08 16:00:00 20.1 9 Norte 27 Nordeste 0 -- -- 53
2018-09-08 15:00:00 19 8 Norte 22 Este 0 -- -- 58
2018-09-08 14:00:00 18.6 9 Oeste 31 Nordeste 0 -- -- 63
2018-09-08 13:00:00 19.1 9 Noroeste 32 Sudeste 0 -- -- 58
2018-09-08 12:00:00 17.5 10 Noroeste 36 Sudeste 0 -- -- 69
2018-09-08 11:00:00 17.1 11 Este 39 Sudeste 0 -- -- 65
2018-09-08 10:00:00 17 10 Nordeste 26 Este 0 -- -- 64
2018-09-08 09:00:00 14.8 9 Nordeste 26 Norte 0 -- -- 77
2018-09-08 08:00:00 13.2 10 Norte 28 Noroeste 0 -- -- 83
2018-09-08 07:00:00 13.8 8 Nordeste 33 Norte 0 -- -- 84
2018-09-08 06:00:00 13.4 7 Norte 28 Norte 0 -- -- 78
2018-09-08 05:00:00 13.3 9 Norte 23 Norte 0 -- -- 85
2018-09-08 04:00:00 13.4 7 Norte 22 Norte 0 -- -- 85
2018-09-08 03:00:00 13.5 9 Norte 24 Norte 0 -- -- 81
2018-09-08 02:00:00 13.3 9 Norte 18 Este 0 -- -- 80
2018-09-08 01:00:00 13.9 7 Nordeste 26 Norte 0 -- -- 76
2018-09-08 00:00:00 14.4 6 Nordeste 21 Nordeste 0 -- -- 82
2018-09-07 23:00:00 14.6 6 Nordeste 23 Este 0 -- -- 82
2018-09-07 22:00:00 15.2 5 Nordeste 22 Este 0 -- -- 81
2018-09-07 21:00:00 15.4 8 Norte 26 Norte 0 -- -- 79
2018-09-07 20:00:00 15.9 6 Nordeste 17 Este 0 -- -- 76
2018-09-07 19:00:00 17.6 7 Este 17 Este 0 -- -- 76
2018-09-07 18:00:00 17.6 8 Este 17 Sudeste 0 -- -- 80
2018-09-07 17:00:00 17.4 8 Este 19 Sudeste 0 -- -- 84
2018-09-07 16:00:00 17.6 8 Este 22 Sudeste 0 -- -- 83
2018-09-07 15:00:00 16.9 8 Nordeste 21 Sudeste 0 -- -- 84
2018-09-07 14:00:00 17.9 8 Nordeste 35 Este 0 -- -- 78
2018-09-07 13:00:00 19.6 10 Sudeste 27 Nordeste 0 -- -- 67
2018-09-07 12:00:00 19.7 10 Nordeste 35 Noroeste 0 -- -- 61
2018-09-07 11:00:00 19 8 Nordeste 22 Norte 0 -- -- 66
2018-09-07 10:00:00 17.2 6 Nordeste 26 Este 0 -- -- 74
2018-09-07 09:00:00 16 8 Nordeste 27 Nordeste 0 -- -- 77
2018-09-07 08:00:00 14 9 Norte 24 Norte 0 -- -- 81
2018-09-07 07:00:00 14.2 8 Norte 28 Norte 0 -- -- 82
2018-09-07 06:00:00 14.1 4 Nordeste 22 Noroeste 0 -- -- 74
2018-09-07 05:00:00 14.5 8 Noroeste 28 Norte 0 -- -- 75
2018-09-07 04:00:00 14.6 10 Norte 31 Noroeste 0 -- -- 77
2018-09-07 03:00:00 15 5 Noroeste 17 Noroeste 0 -- -- 77
2018-09-07 02:00:00 15.1 3 Noroeste 15 Sudeste 0 -- -- 69
2018-09-07 01:00:00 15.5 7 Norte 24 Noroeste 0 -- -- 72
2018-09-07 00:00:00 15.6 8 Noroeste 29 Oeste 0 -- -- 76
2018-09-06 23:00:00 16.4 7 Noroeste 21 Norte 0 -- -- 68
2018-09-06 22:00:00 15.6 5 Noroeste 10 Norte 0 -- -- 48
2018-09-06 21:00:00 17.4 6 Norte 8 Norte 0 -- -- 59
2018-09-06 20:00:00 20.3 3 Sudeste 10 Sur 0 -- -- 72
2018-09-06 19:00:00 22.2 6 Sudeste 16 Sur 0 -- -- 49
2018-09-06 18:00:00 23.4 9 Sur 17 Sur 0 -- -- 53
2018-09-06 17:00:00 23 8 Sur 15 Este 0 -- -- 64
2018-09-06 16:00:00 20.6 8 Sudeste 19 Sudeste 0 -- -- 73
2018-09-06 15:00:00 20.8 8 Sudeste 19 Sudeste 0 -- -- 71
2018-09-06 14:00:00 19.5 9 Sudeste 22 Sudeste 0 -- -- 75
2018-09-06 13:00:00 21.4 13 Sudeste 20 Sudeste 0 -- -- 70
2018-09-06 12:00:00 22.8 10 Sudeste 18 Sudeste 0 -- -- 58
2018-09-06 11:00:00 22.9 8 Norte 18 Norte 0 -- -- 45
2018-09-06 10:00:00 21.1 6 Sur 10 Sudeste 0 -- -- 64
2018-09-06 09:00:00 16.8 3 Norte 12 Noroeste 0 -- -- 61
2018-09-06 08:00:00 16.3 2 Sudoeste 6 Sudeste 0 -- -- 82
2018-09-06 07:00:00 17.8 3 Norte 12 Norte 0 -- -- 39
2018-09-06 06:00:00 16.7 6 Norte 10 Norte 0 -- -- 34
2018-09-06 05:00:00 17.6 4 Norte 7 Norte 0 -- -- 32
2018-09-06 04:00:00 18.2 5 Noroeste 12 Noroeste 0 -- -- 27
2018-09-06 03:00:00 19 7 Noroeste 14 Norte 0 -- -- 26
2018-09-06 02:00:00 18.8 4 Norte 10 Norte 0 -- -- 29
2018-09-06 01:00:00 19.2 3 Norte 10 Norte 0 -- -- 29
2018-09-06 00:00:00 19.9 6 Norte 17 Norte 0 -- -- 30
2018-09-05 23:00:00 20 6 Norte 18 Noroeste 0 -- -- 42
2018-09-05 22:00:00 20.2 3 Oeste 14 Norte 0 -- -- 28
2018-09-05 21:00:00 19.4 3 Norte 9 Sudeste 0 -- -- 36
2018-09-05 20:00:00 21.9 2 Sur 15 Noroeste 0 -- -- 65
2018-09-05 19:00:00 22.5 5 Oeste 14 Noroeste 0 -- -- 60
2018-09-05 18:00:00 22.6 5 Sudoeste 27 Noroeste 0 -- -- 58
2018-09-05 17:00:00 21.4 6 Sudoeste 18 Sur 0 -- -- 65
2018-09-05 16:00:00 21.3 5 Sudeste 25 Sur 0 -- -- 68
2018-09-05 15:00:00 22 8 Sudeste 21 Sur 0 -- -- 65
2018-09-05 14:00:00 21.1 12 Sudeste 23 Sudeste 0 -- -- 66
2018-09-05 13:00:00 21 8 Sur 18 Sudeste 0 -- -- 67
2018-09-05 12:00:00 21.8 10 Sudeste 18 Sudeste 0 -- -- 64
2018-09-05 11:00:00 22.1 6 Sudeste 16 Sudeste 0 -- -- 56
2018-09-05 10:00:00 21.7 4 Sur 12 Sudeste 0 -- -- 59
2018-09-05 09:00:00 19 3 Noroeste 20 Noroeste 0 -- -- 51
2018-09-05 08:00:00 16.7 7 Norte 13 Norte 0 -- -- 34
2018-09-05 07:00:00 16.9 7 Norte 15 Noroeste 0 -- -- 33
2018-09-05 06:00:00 16.6 6 Norte 12 Noroeste 0 -- -- 33
2018-09-05 05:00:00 17.9 8 Norte 22 Norte 0 -- -- 33
2018-09-05 04:00:00 18.2 10 Norte 22 Norte 0 -- -- 35
2018-09-05 03:00:00 16 6 Norte 17 Norte 0 -- -- 42
2018-09-05 02:00:00 16 4 Norte 9 Noroeste 0 -- -- 43
2018-09-05 01:00:00 17.3 4 Noroeste 30 Noroeste 0 -- -- 46
2018-09-05 00:00:00 18.3 13 Norte 28 Norte 0 -- -- 47
2018-09-04 23:00:00 17.9 6 Norte 24 Norte 0 -- -- 44
2018-09-04 22:00:00 16.2 5 Norte 18 Norte 0 -- -- 57
2018-09-04 21:00:00 17.4 4 Norte 19 Noroeste 0 -- -- 71
2018-09-04 20:00:00 18.2 2 Sudoeste 13 Sudeste 0 -- -- 83
2018-09-04 19:00:00 18.6 5 Sur 15 Sudeste 0 -- -- 81
2018-09-04 18:00:00 18.5 8 Este 18 Sudeste 0 -- -- 78
2018-09-04 17:00:00 20.3 9 Sudeste 19 Sudeste 0 -- -- 72
2018-09-04 16:00:00 21.9 12 Sudeste 21 Sur 0 -- -- 63
2018-09-04 15:00:00 23.7 12 Sur 21 Sur 0 -- -- 57
2018-09-04 14:00:00 24.4 8 Sur 18 Sur 0 -- -- 53
2018-09-04 13:00:00 23.8 9 Sur 17 Sudeste 0 -- -- 55
2018-09-04 12:00:00 24.3 6 Sur 13 Este 0 -- -- 50
2018-09-04 11:00:00 22.4 9 Sur 14 Sudeste 0 -- -- 56
2018-09-04 10:00:00 22.6 5 Este 25 Noroeste 0 -- -- 42
2018-09-04 09:00:00 20.3 8 Norte 28 Noroeste 0 -- -- 38
2018-09-04 08:00:00 15.6 4 Noroeste 10 Noroeste 0 -- -- 41
2018-09-04 07:00:00 14.4 3 Norte 9 Norte 0 -- -- 51
2018-09-04 06:00:00 16.2 4 Norte 8 Oeste 0 -- -- 45
2018-09-04 05:00:00 17.5 6 Noroeste 14 Noroeste 0 -- -- 40
2018-09-04 04:00:00 16.7 5 Noroeste 12 Noroeste 0 -- -- 42
2018-09-04 03:00:00 16.4 5 Norte 12 Norte 0 -- -- 43
2018-09-04 02:00:00 18.9 3 Norte 23 Noroeste 0 -- -- 38
2018-09-04 01:00:00 18.7 8 Noroeste 18 Noroeste 0 -- -- 39
2018-09-04 00:00:00 18 5 Noroeste 9 Noroeste 0 -- -- 39
2018-09-03 23:00:00 18.6 5 Noroeste 9 Norte 0 -- -- 41
2018-09-03 22:00:00 20 5 Noroeste 21 Norte 0 -- -- 41
2018-09-03 21:00:00 21.3 8 Norte 17 Noroeste 0 -- -- 40
2018-09-03 20:00:00 21.5 2 Noroeste 9 Norte 0 -- -- 52
2018-09-03 19:00:00 23.2 4 Sur 12 Sur 0 -- -- 55
2018-09-03 18:00:00 22.8 4 Sur 12 Sur 0 -- -- 60
2018-09-03 17:00:00 20.7 10 Sudeste 18 Sudeste 0 -- -- 68
2018-09-03 16:00:00 23.9 9 Sudeste 15 Sudeste 0 -- -- 55
2018-09-03 15:00:00 24 6 Sur 16 Sur 0 -- -- 52
2018-09-03 14:00:00 23.4 7 Sudeste 16 Sudeste 0 -- -- 57
2018-09-03 13:00:00 22.5 9 Sur 20 Sur 0 -- -- 58
2018-09-03 12:00:00 21.8 7 Sudeste 15 Sur 0 -- -- 63
2018-09-03 11:00:00 18.8 8 Sudeste 17 Sudeste 0 -- -- 75
2018-09-03 10:00:00 18.8 6 Sudeste 15 Sudeste 0 -- -- 70
2018-09-03 09:00:00 20.6 4 Sudeste 15 Norte 0 -- -- 21
2018-09-03 08:00:00 17.2 3 Nordeste 17 Norte 0 -- -- 18
2018-09-03 07:00:00 18.1 8 Norte 17 Norte 0 -- -- 15
2018-09-03 06:00:00 17.1 8 Norte 14 Norte 0 -- -- 15
2018-09-03 05:00:00 17.5 4 Norte 17 Noroeste 0 -- -- 15
2018-09-03 04:00:00 18 7 Norte 17 Noroeste 0 -- -- 15
2018-09-03 03:00:00 18.9 7 Noroeste 19 Noroeste 0 -- -- 14
2018-09-03 02:00:00 19.3 10 Norte 22 Noroeste 0 -- -- 13
2018-09-03 01:00:00 18.8 9 Norte 20 Noroeste 0 -- -- 15
2018-09-03 00:00:00 17.4 8 Norte 15 Norte 0 -- -- 18
2018-09-02 23:00:00 17 8 Norte 10 Noroeste 0 -- -- 19
2018-09-02 22:00:00 16.9 4 Noroeste 8 Noroeste 0 -- -- 24
2018-09-02 21:00:00 16.2 4 Oeste 14 Sudeste 0 -- -- 54
2018-09-02 20:00:00 18.8 4 Nordeste 16 Sur 0 -- -- 74
2018-09-02 19:00:00 21.5 5 Sur 18 Sur 0 -- -- 66
2018-09-02 18:00:00 20.5 7 Sudoeste 19 Sur 0 -- -- 67
2018-09-02 17:00:00 18.8 9 Este 19 Este 0 -- -- 75
2018-09-02 16:00:00 19.3 10 Este 21 Sudeste 0 -- -- 73
2018-09-02 15:00:00 19.4 11 Sudeste 23 Sudeste 0 -- -- 70
2018-09-02 14:00:00 19.4 9 Sudeste 24 Sudeste 0 -- -- 69
2018-09-02 13:00:00 19.5 11 Sudeste 21 Sudeste 0 -- -- 70
2018-09-02 12:00:00 19.6 10 Sudeste 20 Sudeste 0 -- -- 69
2018-09-02 11:00:00 19.3 10 Sudeste 15 Sudeste 0 -- -- 68
2018-09-02 10:00:00 18.7 6 Sudeste 12 Sudeste 0 -- -- 67
2018-09-02 09:00:00 14.9 0 Calma 9 Noroeste 0 -- -- 53
2018-09-02 08:00:00 11.6 4 Norte 9 Nordeste 0 -- -- 32
2018-09-02 07:00:00 11.3 3 Noroeste 9 Noroeste 0 -- -- 35
2018-09-02 06:00:00 11.9 6 Norte 12 Noroeste 0 -- -- 39
2018-09-02 05:00:00 11.9 4 Norte 12 Noroeste 0 -- -- 38
2018-09-02 04:00:00 12.7 4 Nordeste 10 Noroeste 0 -- -- 29
2018-09-02 03:00:00 12.8 5 Noroeste 8 Noroeste 0 -- -- 28
2018-09-02 02:00:00 13.5 6 Norte 9 Noroeste 0 -- -- 27
2018-09-02 01:00:00 13.4 6 Norte 10 Norte 0 -- -- 28
2018-09-02 00:00:00 13 7 Norte 10 Norte 0 -- -- 31
2018-09-01 23:00:00 12.9 8 Norte 10 Norte 0 -- -- 37
2018-09-01 22:00:00 13.2 4 Norte 9 Norte 0 -- -- 54
2018-09-01 21:00:00 14.8 4 Norte 7 Norte 0 -- -- 65
2018-09-01 20:00:00 17.8 4 Sur 13 Sur 0 -- -- 77
2018-09-01 19:00:00 19.6 7 Sur 15 Sur 0 -- -- 69
2018-09-01 18:00:00 20.3 6 Sur 17 Sur 0 -- -- 65
2018-09-01 17:00:00 20.7 7 Sur 15 Sur 0 -- -- 63
2018-09-01 16:00:00 20.3 10 Sudeste 21 Sudeste 0 -- -- 63
2018-09-01 15:00:00 19.5 11 Sudeste 21 Sudeste 0 -- -- 66
2018-09-01 14:00:00 19.4 12 Sudeste 21 Sudeste 0 -- -- 66
2018-09-01 13:00:00 18.7 12 Sudeste 19 Sudeste 0 -- -- 69
2018-09-01 12:00:00 18.5 10 Sudeste 19 Sudeste 0 -- -- 69
2018-09-01 11:00:00 18.1 10 Sudeste 15 Sudeste 0 -- -- 71
2018-09-01 10:00:00 17.2 6 Sur 10 Sudeste 0 -- -- 72
2018-09-01 09:00:00 14.3 0 Calma 13 Noroeste 0 -- -- 65
2018-09-01 08:00:00 12.2 6 Noroeste 12 Noroeste 0 -- -- 70
2018-09-01 07:00:00 11.1 8 Noroeste 12 Oeste 0 -- -- 46
2018-09-01 06:00:00 11.5 6 Norte 9 Norte 0 -- -- 70
2018-09-01 05:00:00 14.1 5 Norte 27 Norte 0 -- -- 71
2018-09-01 04:00:00 14.6 14 Norte 31 Norte 0 -- -- 73
2018-09-01 03:00:00 12.8 8 Norte 17 Norte 0 -- -- 35
2018-09-01 02:00:00 12.3 5 Norte 9 Noroeste 0 -- -- 50
2018-09-01 01:00:00 14.3 4 Noroeste 32 Noroeste 0 -- -- 63
2018-09-01 00:00:00 14.5 12 Norte 31 Noroeste 0 -- -- 77
2018-08-31 23:00:00 14 3 Nordeste 14 Noroeste 0 -- -- 52
2018-08-31 22:00:00 14.8 4 Noroeste 36 Noroeste 0 -- -- 63
2018-08-31 21:00:00 15.3 19 Noroeste 42 Noroeste 0 -- -- 75
2018-08-31 20:00:00 16.9 8 Nordeste 30 Noroeste 0 -- -- 66
2018-08-31 19:00:00 19.9 5 Norte 36 Noroeste 0 -- -- 53
2018-08-31 18:00:00 19.4 15 Noroeste 40 Noroeste 0 -- -- 59
2018-08-31 17:00:00 20.9 15 Norte 41 Norte 0 -- -- 58
2018-08-31 16:00:00 23 9 Noroeste 28 Norte 0 -- -- 44
2018-08-31 15:00:00 21.9 11 Noroeste 43 Noroeste 0 -- -- 44
2018-08-31 14:00:00 22 14 Nordeste 33 Norte 0 -- -- 47
2018-08-31 13:00:00 23.2 13 Este 34 Norte 0 -- -- 34
2018-08-31 12:00:00 21.2 13 Norte 44 Noroeste 0 -- -- 40
2018-08-31 11:00:00 21.3 14 Norte 40 Noroeste 0 -- -- 45
2018-08-31 10:00:00 21.7 8 Nordeste 24 Noroeste 0 -- -- 25
2018-08-31 09:00:00 18.5 14 Norte 44 Norte 0 -- -- 46
2018-08-31 08:00:00 19 14 Noroeste 33 Norte 0 -- -- 36
2018-08-31 07:00:00 19.7 6 Nordeste 37 Noroeste 0 -- -- 33
2018-08-31 06:00:00 19.1 15 Norte 45 Norte 0 -- -- 36
2018-08-31 05:00:00 18.6 14 Norte 37 Noroeste 0 -- -- 41
2018-08-31 04:00:00 18.9 16 Norte 32 Nordeste 0 -- -- 42
2018-08-31 03:00:00 17.4 12 Norte 39 Noroeste 0 -- -- 57
2018-08-31 02:00:00 19.4 16 Norte 41 Norte 0 -- -- 41
2018-08-31 01:00:00 18.6 14 Norte 31 Norte 0 -- -- 32
2018-08-31 00:00:00 17.3 14 Norte 31 Norte 0 -- -- 47
2018-08-30 23:00:00 19.2 15 Norte 37 Este 0 -- -- 39
2018-08-30 22:00:00 18.8 13 Norte 34 Norte 0 -- -- 44
2018-08-30 21:00:00 17.6 8 Nordeste 33 Norte 0 -- -- 60
2018-08-30 20:00:00 18.6 9 Este 36 Norte 0 -- -- 55
2018-08-30 19:00:00 20.1 15 Norte 51 Noroeste 0 -- -- 56
2018-08-30 18:00:00 22.1 14 Noroeste 44 Norte 0 -- -- 51
2018-08-30 17:00:00 24.3 9 Norte 27 Norte 0 -- -- 43
2018-08-30 16:00:00 22.8 9 Sudeste 19 Sur 0 -- -- 59
2018-08-30 15:00:00 21.9 12 Sudeste 22 Este 0 -- -- 59
2018-08-30 14:00:00 23.4 9 Sudeste 17 Sudeste 0 -- -- 55
2018-08-30 13:00:00 24.8 8 Sudeste 24 Este 0 -- -- 49
2018-08-30 12:00:00 26.3 6 Norte 29 Noroeste 0 -- -- 23
2018-08-30 11:00:00 24 6 Noroeste 16 Noroeste 0 -- -- 37
2018-08-30 10:00:00 24.3 5 Sudeste 11 Sudeste 0 -- -- 34
2018-08-30 09:00:00 18.2 5 Norte 24 Norte 0 -- -- 48
2018-08-30 08:00:00 16.4 12 Norte 30 Noroeste 0 -- -- 63
2018-08-30 07:00:00 16.9 12 Noroeste 22 Noroeste 0 -- -- 53
2018-08-30 06:00:00 16.9 11 Norte 31 Noroeste 0 -- -- 52
2018-08-30 05:00:00 16.5 15 Noroeste 45 Norte 0 -- -- 64
2018-08-30 04:00:00 18.3 9 Norte 33 Norte 0 -- -- 47
2018-08-30 03:00:00 17 15 Norte 41 Norte 0 -- -- 56
2018-08-30 02:00:00 17.1 19 Norte 40 Norte 0 -- -- 66
2018-08-30 01:00:00 18.6 11 Este 35 Este 0 -- -- 52
2018-08-30 00:00:00 18 12 Norte 41 Norte 0 -- -- 51
2018-08-29 23:00:00 18.9 14 Nordeste 37 Norte 0 -- -- 50
2018-08-29 22:00:00 19.4 15 Norte 38 Norte 0 -- -- 39
2018-08-29 21:00:00 19.3 8 Nordeste 26 Este 0 -- -- 36
2018-08-29 20:00:00 20.3 11 Este 30 Este 0 -- -- 40
2018-08-29 19:00:00 20.1 8 Sudeste 15 Este 0 -- -- 68
2018-08-29 18:00:00 23.9 7 Sudeste 21 Oeste 0 -- -- 53
2018-08-29 17:00:00 25.9 8 Sur 22 Oeste 0 -- -- 35
2018-08-29 16:00:00 24.8 8 Sur 17 Este 0 -- -- 53
2018-08-29 15:00:00 26.2 9 Sur 17 Sur 0 -- -- 47
2018-08-29 14:00:00 25.7 8 Sudeste 22 Noroeste 0 -- -- 46
2018-08-29 13:00:00 25.5 5 Sudeste 17 Sudeste 0 -- -- 43
2018-08-29 12:00:00 26.2 8 Sudeste 15 Sudeste 0 -- -- 45
2018-08-29 11:00:00 27.2 7 Este 21 Noroeste 0 -- -- 28
2018-08-29 10:00:00 24.7 5 Sudeste 12 Sudeste 0 -- -- 39
2018-08-29 09:00:00 20.9 2 Nordeste 9 Noroeste 0 -- -- 18
2018-08-29 08:00:00 19.4 5 Norte 24 Norte 0 -- -- 18
2018-08-29 07:00:00 21.1 11 Norte 23 Noroeste 0 -- -- 16
2018-08-29 06:00:00 17.5 5 Norte 12 Noroeste 0 -- -- 15
2018-08-29 05:00:00 19.2 5 Noroeste 20 Noroeste 0 -- -- 15
2018-08-29 04:00:00 20.8 12 Norte 22 Norte 0 -- -- 15
2018-08-29 03:00:00 18 8 Norte 14 Norte 0 -- -- 16
2018-08-29 02:00:00 18.4 5 Norte 22 Norte 0 -- -- 16
2018-08-29 01:00:00 19.5 7 Norte 24 Nordeste 0 -- -- 17
2018-08-29 00:00:00 19.1 10 Norte 24 Norte 0 -- -- 20
2018-08-28 23:00:00 17.8 9 Norte 16 Norte 0 -- -- 17
2018-08-28 22:00:00 18.2 9 Norte 28 Noroeste 0 -- -- 26
2018-08-28 21:00:00 19.3 10 Norte 21 Norte 0 -- -- 34
2018-08-28 20:00:00 21.7 3 Nordeste 14 Norte 0 -- -- 32
2018-08-28 19:00:00 22.8 6 Noroeste 22 Noroeste 0 -- -- 41
2018-08-28 18:00:00 23.8 11 Noroeste 23 Noroeste 0 -- -- 45
2018-08-28 17:00:00 23.9 7 Sur 18 Sudeste 0 -- -- 56
2018-08-28 16:00:00 24.5 6 Sur 18 Sur 0 -- -- 51
2018-08-28 15:00:00 24.9 11 Sur 21 Sur 0 -- -- 50
2018-08-28 14:00:00 22.4 8 Sur 17 Sudeste 0 -- -- 61
2018-08-28 13:00:00 20.2 11 Sudeste 22 Sudeste 0 -- -- 69
2018-08-28 12:00:00 19.6 10 Sudeste 19 Este 0 -- -- 70
2018-08-28 11:00:00 19.7 8 Sudeste 15 Este 0 -- -- 67
2018-08-28 10:00:00 19.5 6 Sudeste 13 Sudeste 0 -- -- 66
2018-08-28 09:00:00 16 4 Sudeste 10 Norte 0 -- -- 60
2018-08-28 08:00:00 12.7 6 Norte 15 Noroeste 0 -- -- 60
2018-08-28 07:00:00 12.9 5 Norte 16 Noroeste 0 -- -- 62
2018-08-28 06:00:00 14.3 7 Norte 23 Noroeste 0 -- -- 68
2018-08-28 05:00:00 14.8 12 Noroeste 30 Noroeste 0 -- -- 71
2018-08-28 04:00:00 15.7 10 Noroeste 23 Norte 0 -- -- 51
2018-08-28 03:00:00 13.6 7 Norte 12 Noroeste 0 -- -- 51
2018-08-28 02:00:00 14.4 7 Norte 24 Noroeste 0 -- -- 53
2018-08-28 01:00:00 16.3 12 Noroeste 22 Noroeste 0 -- -- 51
2018-08-28 00:00:00 16.8 9 Noroeste 21 Noroeste 0 -- -- 44
2018-08-27 23:00:00 16.5 9 Noroeste 18 Noroeste 0 -- -- 45
2018-08-27 22:00:00 16 8 Noroeste 20 Norte 0 -- -- 48
2018-08-27 21:00:00 16.4 11 Noroeste 27 Norte 0 -- -- 66
2018-08-27 20:00:00 18.2 10 Norte 24 Norte 0 -- -- 66
2018-08-27 19:00:00 21.4 8 Sur 21 Noroeste 0 -- -- 54
2018-08-27 18:00:00 21.6 9 Este 18 Este 0 -- -- 51
2018-08-27 17:00:00 20.6 10 Sudeste 22 Sudeste 0 -- -- 71
2018-08-27 16:00:00 21.6 10 Sudeste 23 Sudeste 0 -- -- 65
2018-08-27 15:00:00 23.1 9 Sudeste 18 Sudeste 0 -- -- 52
2018-08-27 14:00:00 23.6 9 Sudeste 24 Sudeste 0 -- -- 44
2018-08-27 13:00:00 23.2 10 Sudeste 18 Sudeste 0 -- -- 50
2018-08-27 12:00:00 23.4 9 Sudeste 16 Sudeste 0 -- -- 44
2018-08-27 11:00:00 23.7 7 Sur 17 Este 0 -- -- 42
2018-08-27 10:00:00 23.1 5 Norte 12 Norte 0 -- -- 31
2018-08-27 09:00:00 19.3 5 Norte 16 Norte 0 -- -- 42
2018-08-27 08:00:00 15 7 Norte 16 Norte 0 -- -- 52
2018-08-27 07:00:00 15.5 6 Norte 16 Norte 0 -- -- 51
2018-08-27 06:00:00 16 6 Norte 15 Noroeste 0 -- -- 52
2018-08-27 05:00:00 16.5 8 Norte 17 Norte 0 -- -- 52
2018-08-27 04:00:00 16.2 8 Norte 14 Norte 0 -- -- 51
2018-08-27 03:00:00 15.7 4 Nordeste 10 Nordeste 0 -- -- 53
2018-08-27 02:00:00 17.2 4 Norte 23 Nordeste 0 -- -- 49
2018-08-27 01:00:00 18.3 8 Norte 23 Norte 0 -- -- 46
2018-08-27 00:00:00 18.6 7 Norte 21 Norte 0 -- -- 48
2018-08-26 23:00:00 18.8 7 Norte 18 Norte 0 -- -- 46
2018-08-26 22:00:00 18.4 8 Norte 16 Noroeste 0 -- -- 41
2018-08-26 21:00:00 19.4 6 Norte 9 Norte 0 -- -- 36
2018-08-26 20:00:00 23.1 2 Sudeste 12 Sudeste 0 -- -- 30
2018-08-26 19:00:00 24.3 7 Sudeste 17 Sudeste 0 -- -- 27
2018-08-26 18:00:00 25.1 10 Sudeste 18 Sudeste 0 -- -- 25
2018-08-26 17:00:00 25.6 11 Sudeste 23 Sur 0 -- -- 25
2018-08-26 16:00:00 25.3 12 Sudeste 23 Sudeste 0 -- -- 26
2018-08-26 15:00:00 25.3 12 Sudeste 24 Sudeste 0 -- -- 27
2018-08-26 14:00:00 24.3 9 Este 23 Sudeste 0 -- -- 31
2018-08-26 13:00:00 24.3 10 Este 25 Sudeste 0 -- -- 37
2018-08-26 12:00:00 23.6 10 Sudeste 23 Sudeste 0 -- -- 33
2018-08-26 11:00:00 23.4 7 Este 23 Sudeste 0 -- -- 38
2018-08-26 10:00:00 22.4 9 Este 20 Nordeste 0 -- -- 38
2018-08-26 09:00:00 18.8 4 Este 9 Norte 0 -- -- 44
2018-08-26 08:00:00 14.9 6 Norte 10 Norte 0 -- -- 50
2018-08-26 07:00:00 14.7 8 Norte 10 Norte 0 -- -- 47
2018-08-26 06:00:00 15.2 6 Norte 9 Norte 0 -- -- 45
2018-08-26 05:00:00 15.6 5 Noroeste 11 Noroeste 0 -- -- 44
2018-08-26 04:00:00 15.7 7 Noroeste 12 Noroeste 0 -- -- 44
2018-08-26 03:00:00 16.1 8 Noroeste 13 Oeste 0 -- -- 43
2018-08-26 02:00:00 16.6 8 Noroeste 12 Oeste 0 -- -- 43
2018-08-26 01:00:00 17.1 7 Oeste 13 Oeste 0 -- -- 40
2018-08-26 00:00:00 17.4 6 Noroeste 10 Noroeste 0 -- -- 36
2018-08-25 23:00:00 17.8 7 Noroeste 9 Noroeste 0 -- -- 32
2018-08-25 22:00:00 18.5 4 Noroeste 6 Noroeste 0 -- -- 32
2018-08-25 21:00:00 20.5 4 Noroeste 6 Noroeste 0 -- -- 43
2018-08-25 20:00:00 23 2 Sur 14 Sur 0 -- -- 51
2018-08-25 19:00:00 24.9 6 Sur 15 Sudeste 0 -- -- 51
2018-08-25 18:00:00 25.8 7 Sur 19 Sur 0 -- -- 45
2018-08-25 17:00:00 26.7 7 Sur 19 Sur 0 -- -- 39
2018-08-25 16:00:00 27 9 Sudeste 20 Sudeste 0 -- -- 37
2018-08-25 15:00:00 27.3 9 Sudeste 19 Sudeste 0 -- -- 38
2018-08-25 14:00:00 28.5 12 Sudeste 22 Sudeste 0 -- -- 30
2018-08-25 13:00:00 28.8 12 Sur 22 Sur 0 -- -- 28
2018-08-25 12:00:00 29.3 12 Sudeste 25 Sur 0 -- -- 22
2018-08-25 11:00:00 29.7 8 Sur 14 Sur 0 -- -- 15
2018-08-25 10:00:00 28.8 4 Sudeste 10 Sudeste 0 -- -- 17
2018-08-25 09:00:00 24.4 0 Calma 13 Noroeste 0 -- -- 20
2018-08-25 08:00:00 21.3 4 Norte 14 Noroeste 0 -- -- 19
2018-08-25 07:00:00 21.5 6 Norte 13 Norte 0 -- -- 18
2018-08-25 06:00:00 22.1 6 Norte 14 Norte 0 -- -- 18
2018-08-25 05:00:00 22 5 Norte 12 Norte 0 -- -- 18
2018-08-25 04:00:00 22.6 4 Norte 13 Noroeste 0 -- -- 17
2018-08-25 03:00:00 22.1 5 Norte 9 Norte 0 -- -- 18
2018-08-25 02:00:00 22.6 6 Norte 15 Norte 0 -- -- 13
2018-08-25 01:00:00 23.1 6 Norte 15 Norte 0 -- -- 12
2018-08-25 00:00:00 23.4 2 Oeste 8 Noroeste 0 -- -- 14
2018-08-24 23:00:00 23.3 4 Noroeste 6 Noroeste 0 -- -- 17
2018-08-24 22:00:00 24.7 3 Noroeste 8 Norte 0 -- -- 17
2018-08-24 21:00:00 26.1 2 Este 9 Sudoeste 0 -- -- 23
2018-08-24 20:00:00 27.9 5 Nordeste 14 Norte 0 -- -- 23
2018-08-24 19:00:00 29.9 6 Sur 14 Sudeste 0 -- -- 27
2018-08-24 18:00:00 30 8 Sur 17 Sur 0 -- -- 34
2018-08-24 17:00:00 31 9 Sudeste 19 Sur 0 -- -- 31
2018-08-24 16:00:00 31.6 7 Sudeste 23 Sudeste 0 -- -- 26
2018-08-24 15:00:00 31.1 9 Sudeste 19 Sudeste 0 -- -- 32
2018-08-24 14:00:00 31.8 10 Sudeste 17 Sudeste 0 -- -- 29
2018-08-24 13:00:00 32.1 10 Sur 19 Norte 0 -- -- 22
2018-08-24 12:00:00 31.3 9 Este 15 Sudeste 0 -- -- 25
2018-08-24 11:00:00 30.6 9 Sudeste 20 Sur 0 -- -- 25
2018-08-24 10:00:00 29.9 6 Este 17 Norte 0 -- -- 27
2018-08-24 09:00:00 26.2 5 Nordeste 15 Nordeste 0 -- -- 38
2018-08-24 08:00:00 23.6 0 Calma 14 Norte 0 -- -- 42
2018-08-24 07:00:00 24.7 7 Norte 21 Noroeste 0 -- -- 40
2018-08-24 06:00:00 24.9 4 Sudeste 22 Noroeste 0 -- -- 33
2018-08-24 05:00:00 25.5 4 Noroeste 24 Norte 0 -- -- 28
2018-08-24 04:00:00 25.5 8 Noroeste 19 Oeste 0 -- -- 32
2018-08-24 03:00:00 25.6 8 Noroeste 22 Noroeste 0 -- -- 29
2018-08-24 02:00:00 26 10 Noroeste 21 Noroeste 0 -- -- 26
2018-08-24 01:00:00 25.6 10 Norte 18 Norte 0 -- -- 26
2018-08-24 00:00:00 25.8 5 Este 11 Este 0 -- -- 29
2018-08-23 23:00:00 26 5 Este 12 Sudeste 0 -- -- 32
2018-08-23 22:00:00 27 4 Este 17 Noroeste 0 -- -- 30
2018-08-23 21:00:00 27.5 7 Noroeste 21 Norte 0 -- -- 31
2018-08-23 20:00:00 28.6 0 Calma 9 Sur 0 -- -- 19
2018-08-23 19:00:00 30.8 4 Sur 13 Sudeste 0 -- -- 17
2018-08-23 18:00:00 31 5 Sudeste 15 Sudeste 0 -- -- 19
2018-08-23 17:00:00 31.1 8 Sudeste 15 Sudeste 0 -- -- 10
2018-08-23 16:00:00 31.8 9 Sudeste 16 Sur 0 -- -- 17
2018-08-23 15:00:00 32 9 Sur 16 Sur 0 -- -- 17
2018-08-23 14:00:00 31.6 9 Sudeste 17 Sudeste 0 -- -- 14
2018-08-23 13:00:00 31.8 8 Sudeste 16 Sudeste 0 -- -- 20
2018-08-23 12:00:00 31.2 8 Sudeste 13 Sur 0 -- -- 13
2018-08-23 11:00:00 31.4 8 Sudeste 12 Sudeste 0 -- -- 16
2018-08-23 10:00:00 29.6 4 Sudeste 7 Sur 0 -- -- 9
2018-08-23 09:00:00 24 0 Calma 7 Norte 0 -- -- 27
2018-08-23 08:00:00 21.3 7 Norte 11 Norte 0 -- -- 27
2018-08-23 07:00:00 21.1 5 Norte 9 Norte 0 -- -- 20
2018-08-23 06:00:00 21.1 7 Norte 10 Norte 0 -- -- 17
2018-08-23 05:00:00 21.9 6 Norte 8 Norte 0 -- -- 16
2018-08-23 04:00:00 22.5 6 Norte 8 Norte 0 -- -- 14
2018-08-23 03:00:00 23.1 3 Norte 7 Noroeste 0 -- -- 12
2018-08-23 02:00:00 23.2 3 Norte 10 Norte 0 -- -- 11
2018-08-23 01:00:00 22.8 4 Norte 6 Norte 0 -- -- 12
2018-08-23 00:00:00 23.6 4 Norte 8 Este 0 -- -- 12